createdAt,value
2018-04-27T00:01:17.990Z,10.69
2018-04-27T00:03:47.789Z,10.74
2018-04-27T00:06:16.125Z,10.67
2018-04-27T00:08:44.470Z,10.62
2018-04-27T00:11:13.526Z,10.65
2018-04-27T00:13:42.065Z,10.60
2018-04-27T00:16:10.365Z,10.61
2018-04-27T00:18:38.666Z,10.72
2018-04-27T00:21:07.101Z,10.67
2018-04-27T00:23:35.585Z,10.63
2018-04-27T00:26:03.882Z,10.53
2018-04-27T00:28:33.390Z,10.55
2018-04-27T00:31:01.715Z,10.53
2018-04-27T00:33:30.785Z,10.52
2018-04-27T00:35:59.184Z,10.47
2018-04-27T00:38:27.560Z,10.46
2018-04-27T00:40:56.634Z,10.50
2018-04-27T00:43:24.931Z,10.49
2018-04-27T00:45:54.117Z,10.50
2018-04-27T00:51:35.361Z,10.54
2018-04-27T00:54:03.859Z,10.44
2018-04-27T00:56:32.159Z,10.39
2018-04-27T00:59:00.562Z,10.46
2018-04-27T01:01:28.885Z,10.42
2018-04-27T01:03:57.222Z,10.32
2018-04-27T01:06:25.517Z,10.30
2018-04-27T01:08:54.618Z,10.31
2018-04-27T01:11:23.492Z,10.36
2018-04-27T01:13:52.834Z,10.22
2018-04-27T01:16:21.143Z,10.15
2018-04-27T01:18:49.467Z,10.16
2018-04-27T01:21:17.747Z,10.15
2018-04-27T01:23:46.197Z,10.15
2018-04-27T01:26:15.398Z,10.18
2018-04-27T01:28:43.781Z,10.24
2018-04-27T01:31:12.997Z,10.28
2018-04-27T01:36:15.955Z,10.21
2018-04-27T01:38:44.225Z,10.37
2018-04-27T01:41:12.535Z,10.20
2018-04-27T01:43:41.694Z,10.17
2018-04-27T01:46:09.967Z,10.08
2018-04-27T01:48:38.278Z,10.11
2018-04-27T01:51:07.331Z,10.14
2018-04-27T01:53:36.128Z,10.10
2018-04-27T01:56:04.497Z,10.13
2018-04-27T01:58:32.852Z,10.05
2018-04-27T02:01:01.244Z,10.03
2018-04-27T02:03:29.652Z,9.91
2018-04-27T02:05:58.118Z,9.87
2018-04-27T02:08:27.103Z,9.90
2018-04-27T02:10:55.409Z,9.90
2018-04-27T02:13:23.742Z,9.92
2018-04-27T02:15:52.002Z,9.95
2018-04-27T02:18:20.328Z,10.00
2018-04-27T02:20:48.688Z,10.09
2018-04-27T02:23:16.956Z,10.10
2018-04-27T02:25:46.550Z,10.14
2018-04-27T02:28:14.884Z,10.16
2018-04-27T02:30:43.169Z,10.20
2018-04-27T02:33:11.417Z,10.21
2018-04-27T02:35:39.733Z,10.19
2018-04-27T02:38:08.028Z,10.14
2018-04-27T02:40:36.311Z,10.11
2018-04-27T02:43:04.662Z,10.08
2018-04-27T02:45:33.824Z,10.04
2018-04-27T02:48:02.083Z,10.01
2018-04-27T02:50:30.358Z,9.91
2018-04-27T02:52:58.605Z,9.93
2018-04-27T02:55:26.872Z,9.97
2018-04-27T02:57:55.850Z,9.95
2018-04-27T03:00:24.202Z,9.91
2018-04-27T03:02:52.518Z,9.88
2018-04-27T03:05:20.993Z,9.81
2018-04-27T03:07:50.067Z,9.76
2018-04-27T03:10:18.430Z,9.75
2018-04-27T03:12:46.932Z,9.82
2018-04-27T03:15:15.308Z,9.76
2018-04-27T03:17:44.528Z,9.89
2018-04-27T03:20:12.868Z,9.86
2018-04-27T03:22:41.391Z,9.83
2018-04-27T03:25:09.647Z,9.83
2018-04-27T03:27:38.752Z,9.88
2018-04-27T03:30:07.034Z,9.83
2018-04-27T03:32:37.108Z,9.80
2018-04-27T03:35:05.387Z,9.92
2018-04-27T03:37:33.671Z,9.85
2018-04-27T03:40:02.772Z,9.83
2018-04-27T03:42:32.074Z,9.83
2018-04-27T03:45:01.267Z,9.84
2018-04-27T03:47:29.545Z,9.77
2018-04-27T03:49:57.829Z,9.80
2018-04-27T03:52:26.891Z,9.75
2018-04-27T03:54:55.258Z,9.73
2018-04-27T03:57:23.507Z,9.74
2018-04-27T04:03:20.633Z,9.74
2018-04-27T04:05:48.927Z,9.72
2018-04-27T04:08:17.957Z,9.76
2018-04-27T04:10:46.268Z,9.73
2018-04-27T04:13:14.551Z,9.72
2018-04-27T04:15:42.818Z,9.70
2018-04-27T04:18:11.238Z,9.75
2018-04-27T04:20:40.340Z,9.71
2018-04-27T04:23:09.356Z,9.67
2018-04-27T04:25:37.594Z,9.65
2018-04-27T04:28:06.671Z,9.68
2018-04-27T04:30:34.933Z,9.73
2018-04-27T04:33:03.235Z,9.70
2018-04-27T04:35:31.557Z,9.56
2018-04-27T04:37:59.834Z,9.48
2018-04-27T04:40:28.121Z,9.52
2018-04-27T04:42:57.613Z,9.59
2018-04-27T04:45:25.962Z,9.58
2018-04-27T04:47:55.058Z,9.44
2018-04-27T04:50:24.168Z,9.42
2018-04-27T04:52:52.427Z,9.49
2018-04-27T04:55:21.513Z,9.51
2018-04-27T04:57:50.662Z,9.55
2018-04-27T05:00:18.972Z,9.64
2018-04-27T05:02:48.082Z,9.71
2018-04-27T05:05:16.317Z,9.81
2018-04-27T05:07:44.733Z,9.84
2018-04-27T05:10:13.826Z,9.95
2018-04-27T05:12:42.934Z,10.02
2018-04-27T05:15:12.073Z,10.03
2018-04-27T05:17:40.479Z,10.07
2018-04-27T05:20:08.719Z,10.12
2018-04-27T05:22:37.013Z,10.05
2018-04-27T05:25:05.340Z,10.02
2018-04-27T05:27:34.363Z,10.10
2018-04-27T05:30:02.633Z,10.17
2018-04-27T05:32:30.945Z,10.18
2018-04-27T05:34:59.207Z,10.21
2018-04-27T05:37:27.556Z,10.29
2018-04-27T05:39:55.841Z,10.39
2018-04-27T05:42:24.254Z,10.50
2018-04-27T05:44:52.567Z,10.59
2018-04-27T05:47:20.863Z,10.69
2018-04-27T05:49:49.336Z,10.79
2018-04-27T05:52:19.301Z,10.93
2018-04-27T05:54:47.859Z,10.99
2018-04-27T05:57:16.151Z,11.07
2018-04-27T05:59:44.536Z,11.10
2018-04-27T06:02:13.097Z,11.13
2018-04-27T06:04:41.602Z,11.21
2018-04-27T06:07:10.609Z,11.30
2018-04-27T06:09:38.957Z,11.42
2018-04-27T06:12:08.052Z,11.47
2018-04-27T06:14:36.473Z,11.38
2018-04-27T06:17:05.637Z,11.38
2018-04-27T06:19:34.088Z,11.42
2018-04-27T06:22:02.447Z,11.51
2018-04-27T06:24:31.669Z,11.60
2018-04-27T06:27:00.008Z,11.71
2018-04-27T06:29:28.295Z,11.86
2018-04-27T06:31:57.396Z,11.96
2018-04-27T06:34:25.652Z,12.07
2018-04-27T06:36:54.018Z,12.00
2018-04-27T06:39:22.321Z,12.06
2018-04-27T06:41:51.623Z,12.04
2018-04-27T06:44:20.168Z,12.02
2018-04-27T06:46:48.472Z,12.08
2018-04-27T06:49:17.520Z,12.12
2018-04-27T06:51:45.943Z,12.25
2018-04-27T06:54:15.048Z,12.38
2018-04-27T06:56:44.087Z,12.52
2018-04-27T06:59:12.456Z,12.65
2018-04-27T07:01:40.969Z,12.64
2018-04-27T07:04:09.339Z,12.55
2018-04-27T07:06:37.772Z,12.46
2018-04-27T07:09:06.242Z,12.51
2018-04-27T07:11:34.585Z,12.62
2018-04-27T07:14:02.877Z,12.82
2018-04-27T07:16:31.176Z,12.99
2018-04-27T07:19:00.249Z,13.14
2018-04-27T07:21:28.709Z,13.21
2018-04-27T07:23:57.383Z,13.26
2018-04-27T07:26:25.673Z,13.38
2018-04-27T07:28:53.997Z,13.53
2018-04-27T07:31:23.958Z,13.65
2018-04-27T07:33:54.180Z,13.74
2018-04-27T07:36:22.590Z,13.89
2018-04-27T07:38:51.067Z,14.08
2018-04-27T07:41:19.367Z,14.10
2018-04-27T07:43:47.680Z,14.07
2018-04-27T07:46:15.982Z,14.12
2018-04-27T07:48:44.338Z,14.20
2018-04-27T07:51:12.622Z,14.33
2018-04-27T07:53:40.997Z,14.43
2018-04-27T07:56:09.319Z,14.49
2018-04-27T07:58:38.688Z,14.51
2018-04-27T08:01:07.044Z,14.57
2018-04-27T08:03:35.459Z,14.75
2018-04-27T08:06:03.737Z,14.83
2018-04-27T08:08:32.229Z,14.93
2018-04-27T08:11:01.339Z,15.00
2018-04-27T08:13:29.644Z,15.06
2018-04-27T08:15:57.922Z,15.06
2018-04-27T08:18:26.228Z,15.14
2018-04-27T08:20:54.949Z,15.16
2018-04-27T08:23:24.008Z,15.11
2018-04-27T08:25:52.237Z,15.12
2018-04-27T08:28:20.692Z,15.15
2018-04-27T08:30:49.746Z,15.19
2018-04-27T08:33:18.013Z,15.30
2018-04-27T08:35:46.338Z,15.35
2018-04-27T08:38:15.489Z,15.40
2018-04-27T08:40:43.793Z,15.50
2018-04-27T08:43:12.130Z,15.55
2018-04-27T08:45:40.408Z,15.57
2018-04-27T08:48:08.709Z,15.58
2018-04-27T08:50:36.982Z,15.58
2018-04-27T08:53:05.277Z,15.62
2018-04-27T08:55:33.569Z,15.69
2018-04-27T08:58:01.893Z,15.70
2018-04-27T09:00:30.622Z,15.79
2018-04-27T09:02:59.014Z,15.86
2018-04-27T09:05:28.419Z,15.93
2018-04-27T09:07:56.735Z,15.89
2018-04-27T09:10:25.287Z,15.93
2018-04-27T09:12:54.445Z,15.95
2018-04-27T09:15:23.696Z,15.91
2018-04-27T09:17:52.006Z,15.93
2018-04-27T09:20:20.386Z,15.93
2018-04-27T09:22:48.920Z,16.01
2018-04-27T09:25:18.060Z,16.13
2018-04-27T09:27:46.357Z,16.22
2018-04-27T09:30:15.436Z,16.13
2018-04-27T09:32:43.728Z,16.13
2018-04-27T09:35:12.076Z,16.23
2018-04-27T09:37:40.394Z,16.32
2018-04-27T09:40:09.625Z,16.36
2018-04-27T09:42:37.935Z,16.43
2018-04-27T09:45:06.301Z,16.54
2018-04-27T09:47:34.720Z,16.61
2018-04-27T09:50:04.339Z,16.63
2018-04-27T09:52:32.722Z,16.52
2018-04-27T09:55:01.825Z,16.45
2018-04-27T09:57:31.029Z,16.47
2018-04-27T09:59:59.404Z,16.49
2018-04-27T10:02:28.553Z,16.52
2018-04-27T10:04:56.884Z,16.55
2018-04-27T10:07:25.238Z,16.52
2018-04-27T10:09:53.536Z,16.61
2018-04-27T10:12:22.609Z,16.69
2018-04-27T10:14:50.961Z,16.73
2018-04-27T10:17:19.293Z,16.82
2018-04-27T10:19:47.713Z,16.84
2018-04-27T10:22:16.076Z,16.81
2018-04-27T10:24:45.974Z,16.78
2018-04-27T10:27:14.434Z,16.75
2018-04-27T10:29:43.461Z,16.83
2018-04-27T10:32:12.020Z,16.93
2018-04-27T10:34:40.541Z,17.06
2018-04-27T10:37:08.840Z,17.11
2018-04-27T10:39:37.120Z,17.16
2018-04-27T10:42:05.474Z,17.16
2018-04-27T10:44:33.788Z,17.22
2018-04-27T10:47:02.197Z,17.28
2018-04-27T10:49:30.497Z,17.35
2018-04-27T10:51:58.764Z,17.52
2018-04-27T10:54:27.242Z,17.67
2018-04-27T10:56:55.640Z,17.75
2018-04-27T10:59:23.914Z,17.80
2018-04-27T11:01:52.308Z,17.84
2018-04-27T11:04:24.040Z,17.95
2018-04-27T11:06:52.530Z,17.96
2018-04-27T11:09:20.840Z,17.89
2018-04-27T11:11:49.250Z,17.92
2018-04-27T11:14:17.611Z,18.02
2018-04-27T11:16:46.823Z,18.18
2018-04-27T11:19:15.196Z,18.17
2018-04-27T11:21:43.487Z,18.17
2018-04-27T11:24:11.757Z,18.12
2018-04-27T11:26:40.041Z,18.23
2018-04-27T11:29:08.436Z,18.24
2018-04-27T11:31:36.695Z,18.29
2018-04-27T11:34:06.152Z,18.32
2018-04-27T11:36:34.557Z,18.26
2018-04-27T11:39:03.676Z,18.40
2018-04-27T11:41:32.057Z,18.58
2018-04-27T11:44:00.489Z,18.82
2018-04-27T11:46:28.812Z,18.94
2018-04-27T11:48:57.132Z,19.09
2018-04-27T11:51:25.435Z,19.23
2018-04-27T11:53:54.497Z,19.25
2018-04-27T11:56:22.800Z,19.23
2018-04-27T11:58:52.013Z,19.31
2018-04-27T12:01:21.081Z,19.52
2018-04-27T12:03:49.411Z,19.71
2018-04-27T12:06:17.722Z,19.82
2018-04-27T12:08:47.162Z,20.03
2018-04-27T12:11:17.583Z,19.81
2018-04-27T12:13:45.991Z,20.16
2018-04-27T12:16:14.247Z,20.22
2018-04-27T12:18:42.648Z,20.36
2018-04-27T12:21:10.955Z,20.39
2018-04-27T12:23:39.482Z,20.43
2018-04-27T12:26:08.580Z,20.46
2018-04-27T12:28:37.677Z,20.40
2018-04-27T12:31:06.042Z,20.36
2018-04-27T12:33:35.111Z,20.44
2018-04-27T12:36:03.736Z,20.62
2018-04-27T12:38:32.341Z,20.62
2018-04-27T12:41:00.612Z,20.44
2018-04-27T12:43:29.032Z,20.39
2018-04-27T12:45:57.268Z,20.37
2018-04-27T12:48:25.753Z,20.48
2018-04-27T12:50:54.070Z,20.55
2018-04-27T12:53:22.479Z,20.60
2018-04-27T12:55:51.933Z,20.63
2018-04-27T12:58:20.359Z,20.64
2018-04-27T13:00:49.558Z,20.67
2018-04-27T13:03:18.652Z,20.80
2018-04-27T13:05:47.924Z,20.81
2018-04-27T13:08:16.212Z,20.88
2018-04-27T13:10:44.588Z,20.84
2018-04-27T13:13:12.911Z,20.87
2018-04-27T13:15:41.207Z,21.18
2018-04-27T13:18:10.463Z,21.26
2018-04-27T13:20:38.777Z,21.20
2018-04-27T13:23:07.561Z,21.15
2018-04-27T13:25:36.278Z,21.27
2018-04-27T13:28:04.758Z,21.50
2018-04-27T13:30:33.048Z,21.65
2018-04-27T13:33:01.612Z,21.53
2018-04-27T13:35:29.991Z,21.33
2018-04-27T13:37:58.506Z,21.33
2018-04-27T13:40:26.889Z,21.58
2018-04-27T13:42:56.084Z,21.85
2018-04-27T13:45:25.367Z,22.14
2018-04-27T13:47:53.898Z,22.14
2018-04-27T13:50:22.263Z,21.95
2018-04-27T13:52:50.596Z,21.91
2018-04-27T13:55:20.943Z,22.03
2018-04-27T13:57:50.049Z,22.06
2018-04-27T14:00:19.394Z,22.33
2018-04-27T14:02:47.987Z,22.41
2018-04-27T14:05:16.493Z,22.47
2018-04-27T14:07:44.759Z,22.49
2018-04-27T14:10:13.146Z,22.58
2018-04-27T14:12:41.517Z,22.85
2018-04-27T14:15:10.212Z,23.08
2018-04-27T14:17:38.837Z,23.34
2018-04-27T14:20:07.247Z,23.36
2018-04-27T14:22:35.718Z,23.49
2018-04-27T14:25:04.138Z,23.35
2018-04-27T14:27:33.355Z,23.38
2018-04-27T14:30:02.578Z,23.73
2018-04-27T14:32:31.124Z,23.91
2018-04-27T14:35:00.300Z,24.02
2018-04-27T14:37:28.729Z,24.02
2018-04-27T14:39:58.331Z,24.03
2018-04-27T14:42:26.730Z,23.94
2018-04-27T14:44:55.272Z,23.89
2018-04-27T14:47:24.396Z,23.93
2018-04-27T14:49:52.778Z,23.89
2018-04-27T14:52:21.252Z,23.98
2018-04-27T14:54:49.575Z,23.91
2018-04-27T14:57:17.807Z,23.80
2018-04-27T14:59:46.293Z,23.99
2018-04-27T15:02:14.659Z,24.11
2018-04-27T15:04:43.007Z,23.99
2018-04-27T15:07:11.593Z,24.01
2018-04-27T15:09:40.822Z,23.96
2018-04-27T15:12:09.190Z,23.92
2018-04-27T15:14:38.579Z,24.08
2018-04-27T15:17:06.979Z,24.38
2018-04-27T15:19:35.306Z,24.69
2018-04-27T15:22:03.732Z,25.16
2018-04-27T15:24:32.067Z,25.18
2018-04-27T15:27:00.596Z,25.26
2018-04-27T15:29:28.991Z,25.31
2018-04-27T15:31:57.413Z,25.65
2018-04-27T15:34:26.004Z,26.10
2018-04-27T15:36:55.152Z,26.31
2018-04-27T15:39:23.468Z,26.39
2018-04-27T15:41:51.793Z,27.29
2018-04-27T15:44:20.148Z,28.02
2018-04-27T15:46:49.364Z,27.96
2018-04-27T15:49:17.666Z,26.76
2018-04-27T15:51:45.982Z,25.83
2018-04-27T15:54:14.278Z,24.86
2018-04-27T15:56:42.676Z,24.16
2018-04-27T15:59:11.374Z,23.62
2018-04-27T16:01:39.648Z,23.18
2018-04-27T16:04:07.965Z,23.64
2018-04-27T16:06:36.283Z,24.60
2018-04-27T16:09:04.616Z,24.71
2018-04-27T16:11:32.991Z,24.60
2018-04-27T16:14:01.435Z,25.25
2018-04-27T16:16:30.794Z,25.39
2018-04-27T16:18:59.872Z,24.88
2018-04-27T16:21:29.428Z,24.36
2018-04-27T16:23:58.629Z,23.91
2018-04-27T16:26:33.027Z,23.58
2018-04-27T16:29:02.106Z,23.20
2018-04-27T16:31:31.164Z,23.50
2018-04-27T16:33:59.502Z,24.78
2018-04-27T16:36:27.828Z,25.21
2018-04-27T16:38:56.188Z,25.28
2018-04-27T16:41:24.533Z,26.04
2018-04-27T16:43:52.877Z,27.13
2018-04-27T16:46:22.094Z,27.57
2018-04-27T16:48:51.234Z,27.81
2018-04-27T16:51:19.553Z,28.79
2018-04-27T16:53:48.805Z,29.61
2018-04-27T16:56:17.295Z,29.87
2018-04-27T16:58:45.829Z,29.13
2018-04-27T17:01:14.243Z,28.35
2018-04-27T17:03:42.596Z,27.46
2018-04-27T17:06:11.875Z,26.45
2018-04-27T17:08:40.379Z,25.41
2018-04-27T17:11:09.971Z,24.53
2018-04-27T17:13:38.461Z,23.75
2018-04-27T17:16:07.105Z,23.15
2018-04-27T17:18:35.713Z,22.67
2018-04-27T17:21:04.048Z,22.39
2018-04-27T17:23:32.383Z,22.08
2018-04-27T17:26:01.497Z,21.98
2018-04-27T17:28:29.827Z,22.44
2018-04-27T17:30:58.144Z,23.94
2018-04-27T17:33:26.570Z,25.23
2018-04-27T17:35:55.353Z,25.16
2018-04-27T17:38:23.813Z,24.49
2018-04-27T17:40:52.559Z,23.74
2018-04-27T17:43:20.942Z,22.96
2018-04-27T17:45:49.489Z,22.37
2018-04-27T17:48:17.852Z,22.04
2018-04-27T17:50:46.207Z,21.86
2018-04-27T17:53:14.487Z,21.81
2018-04-27T17:55:43.093Z,21.76
2018-04-27T17:58:12.189Z,21.57
2018-04-27T18:00:40.623Z,21.30
2018-04-27T18:03:09.130Z,21.08
2018-04-27T18:05:37.601Z,20.91
2018-04-27T18:08:05.965Z,20.76
2018-04-27T18:10:35.293Z,20.60
2018-04-27T18:13:03.618Z,20.47
2018-04-27T18:15:33.142Z,20.35
2018-04-27T18:18:02.639Z,20.19
2018-04-27T18:20:31.879Z,20.01
2018-04-27T18:23:00.549Z,19.93
2018-04-27T18:25:30.256Z,19.71
2018-04-27T18:27:58.781Z,19.48
2018-04-27T18:30:28.718Z,19.36
2018-04-27T18:32:57.311Z,19.18
2018-04-27T18:35:26.042Z,19.03
2018-04-27T18:37:54.441Z,18.90
2018-04-27T18:40:23.039Z,18.82
2018-04-27T18:42:51.621Z,18.80
2018-04-27T18:45:20.136Z,18.76
2018-04-27T18:47:48.508Z,18.55
2018-04-27T18:50:17.680Z,18.43
2018-04-27T18:52:46.238Z,18.30
2018-04-27T18:55:15.020Z,18.27
2018-04-27T18:57:43.812Z,18.24
2018-04-27T19:00:12.920Z,18.13
2018-04-27T19:02:41.652Z,18.12
2018-04-27T19:05:10.184Z,18.13
2018-04-27T19:07:38.810Z,18.15
2018-04-27T19:10:07.859Z,18.17
2018-04-27T19:12:36.297Z,18.20
2018-04-27T19:15:04.922Z,18.20
2018-04-27T19:17:34.908Z,18.25
2018-04-27T19:20:05.041Z,18.25
2018-04-27T19:22:35.086Z,18.21
2018-04-27T19:25:05.368Z,18.19
2018-04-27T19:27:35.730Z,18.18
2018-04-27T19:30:05.862Z,18.12
2018-04-27T19:32:36.023Z,18.05
2018-04-27T19:35:05.245Z,17.96
2018-04-27T19:37:34.960Z,17.68
2018-04-27T19:40:03.781Z,17.63
2018-04-27T19:42:32.715Z,17.56
2018-04-27T19:45:01.416Z,17.47
2018-04-27T19:47:30.016Z,17.51
2018-04-27T19:49:58.619Z,17.52
2018-04-27T19:52:27.082Z,17.46
2018-04-27T19:54:55.490Z,17.35
2018-04-27T19:57:23.910Z,17.34
2018-04-27T19:59:52.240Z,17.41
2018-04-27T20:02:20.838Z,17.44
2018-04-27T20:04:49.271Z,17.47
2018-04-27T20:07:17.600Z,17.43
2018-04-27T20:09:46.679Z,17.40
2018-04-27T20:12:15.064Z,17.39
2018-04-27T20:14:45.074Z,17.34
2018-04-27T20:17:13.478Z,17.31
2018-04-27T20:19:43.698Z,17.32
2018-04-27T20:22:23.091Z,17.32
2018-04-27T20:25:01.382Z,17.35
2018-04-27T20:30:25.264Z,17.15
2018-04-27T20:32:54.509Z,17.17
2018-04-27T20:35:22.872Z,17.10
2018-04-27T20:37:53.050Z,16.92
2018-04-27T20:40:27.086Z,16.83
2018-04-27T20:42:55.655Z,16.84
2018-04-27T20:45:24.933Z,16.85
2018-04-27T20:47:54.375Z,16.84
2018-04-27T20:50:27.818Z,16.84
2018-04-27T20:53:06.219Z,16.86
2018-04-27T20:55:35.241Z,16.83
2018-04-27T20:58:04.454Z,16.83
2018-04-27T21:00:33.070Z,16.80
2018-04-27T21:03:01.429Z,16.79
2018-04-27T21:05:29.835Z,16.57
2018-04-27T21:07:58.126Z,16.36
2018-04-27T21:10:30.508Z,16.35
2018-04-27T21:12:59.015Z,16.32
2018-04-27T21:15:28.208Z,16.27
2018-04-27T21:17:57.310Z,16.36
2018-04-27T21:20:29.519Z,16.38
2018-04-27T21:22:58.862Z,16.43
2018-04-27T21:25:39.511Z,16.46
2018-04-27T21:28:18.993Z,16.52
2018-04-27T21:30:50.249Z,16.57
2018-04-27T21:33:19.595Z,16.54
2018-04-27T21:35:55.519Z,16.47
2018-04-27T21:38:42.193Z,16.45
2018-04-27T21:41:44.960Z,16.40
2018-04-27T21:47:23.763Z,16.30
2018-04-27T21:49:52.118Z,16.32
2018-04-27T21:55:24.310Z,16.23
2018-04-27T21:58:04.425Z,16.16
2018-04-27T22:00:33.575Z,16.03
2018-04-27T22:03:19.053Z,16.00
2018-04-27T22:09:03.525Z,15.96
2018-04-27T22:11:38.529Z,15.98
2018-04-27T22:14:34.115Z,16.01
2018-04-27T22:17:12.258Z,16.04
2018-04-27T22:19:40.614Z,16.03
2018-04-27T22:22:09.669Z,16.00
2018-04-27T22:27:39.242Z,15.89
2018-04-27T22:30:15.100Z,15.60
2018-04-27T22:32:44.246Z,15.52
2018-04-27T22:35:15.099Z,15.46
2018-04-27T22:37:45.079Z,15.52
2018-04-27T22:40:36.240Z,15.52
2018-04-27T22:43:12.964Z,15.56
2018-04-27T22:45:45.062Z,15.57
2018-04-27T22:51:35.732Z,15.43
2018-04-27T22:54:15.653Z,15.46
2018-04-27T22:56:53.794Z,15.52
2018-04-27T22:59:29.661Z,15.59
2018-04-27T23:07:58.744Z,15.53
2018-04-27T23:10:29.559Z,15.54
2018-04-27T23:13:07.004Z,15.59
2018-04-27T23:15:42.029Z,15.65
2018-04-27T23:18:13.818Z,15.56
2018-04-27T23:20:42.520Z,15.55
2018-04-27T23:23:11.055Z,15.59
2018-04-27T23:25:53.624Z,15.55
2018-04-27T23:28:21.901Z,15.63
2018-04-27T23:30:50.185Z,15.59
2018-04-27T23:33:18.506Z,15.57
2018-04-27T23:35:50.573Z,15.61
2018-04-27T23:38:21.199Z,15.60
2018-04-27T23:40:50.925Z,15.54
2018-04-27T23:43:20.879Z,15.63
2018-04-27T23:45:49.165Z,15.66
2018-04-27T23:48:17.671Z,15.58
2018-04-27T23:50:50.299Z,15.65
2018-04-27T23:53:18.588Z,15.59
2018-04-27T23:55:46.860Z,15.62
2018-04-27T23:58:21.119Z,15.65
